sensor_id;sensor_type;location;lat;lon;timestamp;pressure;altitude;pressure_sealevel;temperature;humidity
33422;BME280;19763;55.798;37.782;2022-07-29T00:02:17;99606.97;;;20.00;69.73
33422;BME280;19763;55.798;37.782;2022-07-29T00:04:43;99608.09;;;19.96;69.52
33422;BME280;19763;55.798;37.782;2022-07-29T00:07:08;99605.38;;;19.97;69.83
33422;BME280;19763;55.798;37.782;2022-07-29T00:09:34;99611.47;;;19.83;69.24
33422;BME280;19763;55.798;37.782;2022-07-29T00:12:00;99611.22;;;19.88;68.90
33422;BME280;19763;55.798;37.782;2022-07-29T00:14:27;99615.22;;;19.79;68.80
33422;BME280;19763;55.798;37.782;2022-07-29T00:16:53;99612.44;;;19.82;69.14
33422;BME280;19763;55.798;37.782;2022-07-29T00:19:19;99611.03;;;19.61;68.42
33422;BME280;19763;55.798;37.782;2022-07-29T00:21:44;99612.66;;;19.63;68.94
33422;BME280;19763;55.798;37.782;2022-07-29T00:24:10;99616.22;;;19.62;69.10
33422;BME280;19763;55.798;37.782;2022-07-29T00:26:35;99615.56;;;19.73;68.84
33422;BME280;19763;55.798;37.782;2022-07-29T00:29:03;99567.69;;;19.39;68.61
33422;BME280;19763;55.798;37.782;2022-07-29T00:31:28;99620.22;;;19.39;68.62
33422;BME280;19763;55.798;37.782;2022-07-29T00:33:54;99622.31;;;19.48;68.58
33422;BME280;19763;55.798;37.782;2022-07-29T00:36:20;99620.66;;;19.17;69.62
33422;BME280;19763;55.798;37.782;2022-07-29T00:38:50;99614.75;;;19.28;69.36
33422;BME280;19763;55.798;37.782;2022-07-29T00:41:18;99575.97;;;19.03;70.07
33422;BME280;19763;55.798;37.782;2022-07-29T00:43:44;99619.31;;;19.10;70.07
33422;BME280;19763;55.798;37.782;2022-07-29T00:46:11;99624.38;;;19.13;69.86
33422;BME280;19763;55.798;37.782;2022-07-29T00:48:37;99624.69;;;19.23;70.49
33422;BME280;19763;55.798;37.782;2022-07-29T00:51:05;99634.66;;;19.32;69.15
33422;BME280;19763;55.798;37.782;2022-07-29T00:53:32;99631.19;;;19.31;70.11
33422;BME280;19763;55.798;37.782;2022-07-29T00:55:59;99626.84;;;19.30;69.57
33422;BME280;19763;55.798;37.782;2022-07-29T00:58:26;99609.66;;;19.10;70.00
33422;BME280;19763;55.798;37.782;2022-07-29T01:00:52;99631.47;;;19.27;69.25
33422;BME280;19763;55.798;37.782;2022-07-29T01:03:18;99629.94;;;19.23;69.37
33422;BME280;19763;55.798;37.782;2022-07-29T01:05:44;99655.44;;;19.21;69.29
33422;BME280;19763;55.798;37.782;2022-07-29T01:08:12;99600.03;;;18.79;68.22
33422;BME280;19763;55.798;37.782;2022-07-29T01:10:39;99641.94;;;18.96;69.12
33422;BME280;19763;55.798;37.782;2022-07-29T01:13:06;99646.94;;;19.01;69.40
33422;BME280;19763;55.798;37.782;2022-07-29T01:15:36;99650.72;;;18.79;69.29
33422;BME280;19763;55.798;37.782;2022-07-29T01:18:11;99658.38;;;19.00;69.03
33422;BME280;19763;55.798;37.782;2022-07-29T01:21:06;99651.22;;;19.02;68.65
33422;BME280;19763;55.798;37.782;2022-07-29T01:29:00;99649.72;;;18.98;69.91
33422;BME280;19763;55.798;37.782;2022-07-29T01:34:13;99657.34;;;18.87;69.18
33422;BME280;19763;55.798;37.782;2022-07-29T01:36:54;99643.22;;;18.73;68.97
33422;BME280;19763;55.798;37.782;2022-07-29T01:39:30;99644.72;;;18.77;69.34
33422;BME280;19763;55.798;37.782;2022-07-29T01:42:05;99650.06;;;18.76;70.11
33422;BME280;19763;55.798;37.782;2022-07-29T01:44:48;99613.09;;;18.49;70.26
33422;BME280;19763;55.798;37.782;2022-07-29T01:47:20;99616.13;;;18.57;69.45
33422;BME280;19763;55.798;37.782;2022-07-29T01:49:49;99600.75;;;18.51;69.75
33422;BME280;19763;55.798;37.782;2022-07-29T01:53:06;99654.28;;;18.62;69.86
33422;BME280;19763;55.798;37.782;2022-07-29T01:55:14;99609.88;;;18.59;69.78
33422;BME280;19763;55.798;37.782;2022-07-29T01:57:44;99643.38;;;18.70;70.02
33422;BME280;19763;55.798;37.782;2022-07-29T02:00:12;99641.03;;;18.66;70.03
33422;BME280;19763;55.798;37.782;2022-07-29T02:02:40;99615.91;;;18.45;70.51
33422;BME280;19763;55.798;37.782;2022-07-29T02:05:08;99597.88;;;18.39;70.82
33422;BME280;19763;55.798;37.782;2022-07-29T02:07:36;99649.91;;;18.63;70.98
33422;BME280;19763;55.798;37.782;2022-07-29T02:10:03;99659.53;;;18.62;70.50
33422;BME280;19763;55.798;37.782;2022-07-29T02:12:31;99631.88;;;18.57;70.98
33422;BME280;19763;55.798;37.782;2022-07-29T02:15:18;99655.81;;;18.67;70.97
33422;BME280;19763;55.798;37.782;2022-07-29T02:17:49;99613.09;;;18.33;71.80
33422;BME280;19763;55.798;37.782;2022-07-29T02:20:16;99663.94;;;18.62;72.15
33422;BME280;19763;55.798;37.782;2022-07-29T02:22:43;99625.88;;;18.39;71.45
33422;BME280;19763;55.798;37.782;2022-07-29T02:25:11;99661.84;;;18.53;71.27
33422;BME280;19763;55.798;37.782;2022-07-29T02:27:39;99619.19;;;18.33;71.78
33422;BME280;19763;55.798;37.782;2022-07-29T02:30:05;99673.84;;;18.57;71.96
33422;BME280;19763;55.798;37.782;2022-07-29T02:32:34;99670.03;;;18.62;72.34
33422;BME280;19763;55.798;37.782;2022-07-29T02:35:02;99669.38;;;18.59;71.18
33422;BME280;19763;55.798;37.782;2022-07-29T02:37:30;99617.50;;;18.32;71.38
33422;BME280;19763;55.798;37.782;2022-07-29T02:39:57;99662.94;;;18.65;70.81
33422;BME280;19763;55.798;37.782;2022-07-29T02:42:26;99671.63;;;18.65;70.27
33422;BME280;19763;55.798;37.782;2022-07-29T02:44:52;99668.84;;;18.68;71.23
33422;BME280;19763;55.798;37.782;2022-07-29T02:49:55;99661.31;;;18.62;71.21
33422;BME280;19763;55.798;37.782;2022-07-29T02:52:43;99670.28;;;18.58;71.64
33422;BME280;19763;55.798;37.782;2022-07-29T03:00:57;99675.97;;;18.66;71.40
33422;BME280;19763;55.798;37.782;2022-07-29T03:03:25;99669.72;;;18.69;71.55
33422;BME280;19763;55.798;37.782;2022-07-29T03:05:57;99635.34;;;18.41;71.36
33422;BME280;19763;55.798;37.782;2022-07-29T03:08:26;99626.97;;;18.51;71.20
33422;BME280;19763;55.798;37.782;2022-07-29T03:10:53;99674.97;;;18.69;71.26
33422;BME280;19763;55.798;37.782;2022-07-29T03:13:20;99662.59;;;18.71;71.85
33422;BME280;19763;55.798;37.782;2022-07-29T03:15:47;99669.78;;;18.83;71.34
33422;BME280;19763;55.798;37.782;2022-07-29T03:18:12;99664.72;;;18.80;71.42
33422;BME280;19763;55.798;37.782;2022-07-29T03:20:38;99668.00;;;18.84;70.76
33422;BME280;19763;55.798;37.782;2022-07-29T03:23:05;99667.63;;;18.91;70.21
33422;BME280;19763;55.798;37.782;2022-07-29T03:25:31;99671.75;;;18.95;70.63
33422;BME280;19763;55.798;37.782;2022-07-29T03:27:56;99661.41;;;18.92;70.55
33422;BME280;19763;55.798;37.782;2022-07-29T03:30:22;99670.63;;;19.00;69.80
33422;BME280;19763;55.798;37.782;2022-07-29T03:32:49;99680.63;;;19.09;70.16
33422;BME280;19763;55.798;37.782;2022-07-29T03:35:15;99670.94;;;19.09;69.82
33422;BME280;19763;55.798;37.782;2022-07-29T03:37:44;99674.75;;;19.20;68.99
33422;BME280;19763;55.798;37.782;2022-07-29T03:40:18;99661.53;;;19.21;69.38
33422;BME280;19763;55.798;37.782;2022-07-29T03:42:45;99668.22;;;19.27;69.50
33422;BME280;19763;55.798;37.782;2022-07-29T03:45:18;99682.19;;;19.27;69.92
33422;BME280;19763;55.798;37.782;2022-07-29T03:47:51;99679.47;;;19.29;70.02
33422;BME280;19763;55.798;37.782;2022-07-29T03:50:17;99671.00;;;19.24;70.53
33422;BME280;19763;55.798;37.782;2022-07-29T03:52:45;99680.16;;;19.33;69.55
33422;BME280;19763;55.798;37.782;2022-07-29T03:55:11;99682.50;;;19.37;69.38
33422;BME280;19763;55.798;37.782;2022-07-29T03:57:38;99685.69;;;19.42;69.53
33422;BME280;19763;55.798;37.782;2022-07-29T04:00:06;99687.22;;;19.46;69.14
33422;BME280;19763;55.798;37.782;2022-07-29T04:02:32;99674.84;;;19.48;69.53
33422;BME280;19763;55.798;37.782;2022-07-29T04:04:58;99687.09;;;19.64;69.00
33422;BME280;19763;55.798;37.782;2022-07-29T04:07:24;99692.38;;;19.48;68.75
33422;BME280;19763;55.798;37.782;2022-07-29T04:09:50;99693.22;;;19.48;68.24
33422;BME280;19763;55.798;37.782;2022-07-29T04:12:15;99688.97;;;19.31;67.66
33422;BME280;19763;55.798;37.782;2022-07-29T04:14:41;99684.66;;;19.45;67.17
33422;BME280;19763;55.798;37.782;2022-07-29T04:17:06;99686.88;;;19.53;67.50
33422;BME280;19763;55.798;37.782;2022-07-29T04:19:33;99685.66;;;19.58;67.81
33422;BME280;19763;55.798;37.782;2022-07-29T04:21:59;99680.88;;;19.65;67.36
33422;BME280;19763;55.798;37.782;2022-07-29T04:24:25;99686.91;;;19.67;66.94
33422;BME280;19763;55.798;37.782;2022-07-29T04:26:51;99683.06;;;19.73;66.50
33422;BME280;19763;55.798;37.782;2022-07-29T04:29:16;99689.16;;;19.73;67.13
33422;BME280;19763;55.798;37.782;2022-07-29T04:31:42;99687.44;;;19.72;66.33
33422;BME280;19763;55.798;37.782;2022-07-29T04:34:09;99692.22;;;19.81;66.03
33422;BME280;19763;55.798;37.782;2022-07-29T04:36:35;99693.91;;;19.82;67.27
33422;BME280;19763;55.798;37.782;2022-07-29T04:39:01;99688.56;;;19.98;66.50
33422;BME280;19763;55.798;37.782;2022-07-29T04:41:27;99690.16;;;20.01;66.54
33422;BME280;19763;55.798;37.782;2022-07-29T04:43:53;99692.22;;;20.10;66.43
33422;BME280;19763;55.798;37.782;2022-07-29T04:46:19;99698.50;;;20.22;66.11
33422;BME280;19763;55.798;37.782;2022-07-29T04:48:47;99695.41;;;20.30;66.09
33422;BME280;19763;55.798;37.782;2022-07-29T04:51:16;99695.22;;;20.33;65.16
33422;BME280;19763;55.798;37.782;2022-07-29T04:53:42;99693.06;;;20.40;65.01
33422;BME280;19763;55.798;37.782;2022-07-29T04:56:08;99691.38;;;20.39;64.12
33422;BME280;19763;55.798;37.782;2022-07-29T04:58:36;99695.47;;;20.57;62.86
33422;BME280;19763;55.798;37.782;2022-07-29T05:01:03;99694.66;;;20.57;62.35
33422;BME280;19763;55.798;37.782;2022-07-29T05:03:29;99690.22;;;20.57;62.11
33422;BME280;19763;55.798;37.782;2022-07-29T05:05:54;99703.06;;;20.62;61.29
33422;BME280;19763;55.798;37.782;2022-07-29T05:08:20;99688.25;;;20.75;61.82
33422;BME280;19763;55.798;37.782;2022-07-29T05:10:46;99696.88;;;21.04;61.45
33422;BME280;19763;55.798;37.782;2022-07-29T05:13:11;99692.63;;;21.16;61.03
33422;BME280;19763;55.798;37.782;2022-07-29T05:15:37;99698.56;;;21.33;60.75
33422;BME280;19763;55.798;37.782;2022-07-29T05:18:03;99704.81;;;21.45;60.68
33422;BME280;19763;55.798;37.782;2022-07-29T05:20:29;99699.63;;;21.43;60.37
33422;BME280;19763;55.798;37.782;2022-07-29T05:22:56;99704.16;;;21.81;59.77
33422;BME280;19763;55.798;37.782;2022-07-29T05:25:23;99698.44;;;21.75;58.14
33422;BME280;19763;55.798;37.782;2022-07-29T05:27:49;99704.81;;;21.85;57.91
33422;BME280;19763;55.798;37.782;2022-07-29T05:30:15;99710.38;;;21.93;57.67
33422;BME280;19763;55.798;37.782;2022-07-29T05:32:41;99706.78;;;21.81;56.09
33422;BME280;19763;55.798;37.782;2022-07-29T05:35:07;99711.84;;;21.84;57.04
33422;BME280;19763;55.798;37.782;2022-07-29T05:37:33;99707.44;;;21.85;55.96
33422;BME280;19763;55.798;37.782;2022-07-29T05:39:58;99709.09;;;21.73;56.32
33422;BME280;19763;55.798;37.782;2022-07-29T05:42:25;99704.59;;;21.75;55.80
33422;BME280;19763;55.798;37.782;2022-07-29T05:47:17;99701.06;;;21.62;56.72
33422;BME280;19763;55.798;37.782;2022-07-29T05:49:43;99699.19;;;21.24;57.89
33422;BME280;19763;55.798;37.782;2022-07-29T05:52:09;99707.09;;;21.64;58.49
33422;BME280;19763;55.798;37.782;2022-07-29T05:54:35;99712.16;;;21.67;58.09
33422;BME280;19763;55.798;37.782;2022-07-29T05:57:01;99708.28;;;21.85;57.82
33422;BME280;19763;55.798;37.782;2022-07-29T05:59:26;99712.72;;;21.85;57.35
33422;BME280;19763;55.798;37.782;2022-07-29T06:01:52;99711.56;;;21.89;57.62
33422;BME280;19763;55.798;37.782;2022-07-29T06:04:18;99698.88;;;21.68;57.20
33422;BME280;19763;55.798;37.782;2022-07-29T06:06:43;99702.75;;;21.63;56.57
33422;BME280;19763;55.798;37.782;2022-07-29T06:09:09;99695.28;;;21.69;56.94
33422;BME280;19763;55.798;37.782;2022-07-29T06:11:34;99697.00;;;21.83;57.25
33422;BME280;19763;55.798;37.782;2022-07-29T06:14:00;99705.63;;;21.72;55.57
33422;BME280;19763;55.798;37.782;2022-07-29T06:16:28;99701.84;;;21.77;55.54
33422;BME280;19763;55.798;37.782;2022-07-29T06:18:53;99694.53;;;21.54;54.76
33422;BME280;19763;55.798;37.782;2022-07-29T06:21:19;99711.13;;;21.82;56.05
33422;BME280;19763;55.798;37.782;2022-07-29T06:23:45;99699.09;;;21.91;55.73
33422;BME280;19763;55.798;37.782;2022-07-29T06:26:10;99691.91;;;21.93;55.27
33422;BME280;19763;55.798;37.782;2022-07-29T06:28:36;99707.22;;;22.01;54.87
33422;BME280;19763;55.798;37.782;2022-07-29T06:31:02;99698.88;;;22.07;55.21
33422;BME280;19763;55.798;37.782;2022-07-29T06:33:28;99699.31;;;22.01;54.55
33422;BME280;19763;55.798;37.782;2022-07-29T06:35:53;99695.19;;;21.84;54.59
33422;BME280;19763;55.798;37.782;2022-07-29T06:38:20;99698.28;;;21.91;52.85
33422;BME280;19763;55.798;37.782;2022-07-29T06:40:46;99692.66;;;21.82;50.66
33422;BME280;19763;55.798;37.782;2022-07-29T06:43:37;99695.53;;;21.79;52.35
33422;BME280;19763;55.798;37.782;2022-07-29T06:46:06;99697.09;;;21.95;52.73
33422;BME280;19763;55.798;37.782;2022-07-29T06:48:32;99693.59;;;22.07;52.57
33422;BME280;19763;55.798;37.782;2022-07-29T06:50:59;99687.50;;;22.06;52.01
33422;BME280;19763;55.798;37.782;2022-07-29T06:53:25;99690.84;;;22.21;53.00
33422;BME280;19763;55.798;37.782;2022-07-29T06:55:51;99699.41;;;22.38;52.42
33422;BME280;19763;55.798;37.782;2022-07-29T06:58:17;99695.41;;;22.45;51.63
33422;BME280;19763;55.798;37.782;2022-07-29T07:00:46;99690.41;;;22.53;51.03
33422;BME280;19763;55.798;37.782;2022-07-29T07:03:12;99695.28;;;22.47;50.33
33422;BME280;19763;55.798;37.782;2022-07-29T07:05:38;99702.41;;;22.33;50.65
33422;BME280;19763;55.798;37.782;2022-07-29T07:08:05;99700.13;;;22.27;50.74
33422;BME280;19763;55.798;37.782;2022-07-29T07:10:30;99691.94;;;22.45;51.29
33422;BME280;19763;55.798;37.782;2022-07-29T07:12:56;99693.28;;;22.50;51.32
33422;BME280;19763;55.798;37.782;2022-07-29T07:15:22;99704.38;;;22.43;51.70
33422;BME280;19763;55.798;37.782;2022-07-29T07:17:50;99695.66;;;22.66;51.70
33422;BME280;19763;55.798;37.782;2022-07-29T07:20:17;99704.38;;;22.43;49.98
33422;BME280;19763;55.798;37.782;2022-07-29T07:22:43;99705.13;;;22.45;50.55
33422;BME280;19763;55.798;37.782;2022-07-29T07:25:09;99709.53;;;22.44;51.13
33422;BME280;19763;55.798;37.782;2022-07-29T07:27:37;99710.06;;;22.49;50.09
33422;BME280;19763;55.798;37.782;2022-07-29T07:30:06;99713.13;;;22.43;50.52
33422;BME280;19763;55.798;37.782;2022-07-29T07:32:33;99715.22;;;22.51;50.36
33422;BME280;19763;55.798;37.782;2022-07-29T07:34:58;99714.81;;;22.44;48.94
33422;BME280;19763;55.798;37.782;2022-07-29T07:37:25;99713.00;;;22.57;49.89
33422;BME280;19763;55.798;37.782;2022-07-29T07:39:51;99693.56;;;22.58;50.05
33422;BME280;19763;55.798;37.782;2022-07-29T07:42:18;99692.22;;;22.77;50.23
33422;BME280;19763;55.798;37.782;2022-07-29T07:44:43;99700.22;;;22.88;50.65
33422;BME280;19763;55.798;37.782;2022-07-29T07:47:12;99705.78;;;22.97;49.82
33422;BME280;19763;55.798;37.782;2022-07-29T07:49:38;99701.03;;;23.02;50.23
33422;BME280;19763;55.798;37.782;2022-07-29T07:52:04;99699.72;;;23.20;50.72
33422;BME280;19763;55.798;37.782;2022-07-29T07:54:30;99700.41;;;23.22;50.72
33422;BME280;19763;55.798;37.782;2022-07-29T07:56:56;99709.34;;;23.33;49.97
33422;BME280;19763;55.798;37.782;2022-07-29T07:59:22;99696.88;;;23.35;50.88
33422;BME280;19763;55.798;37.782;2022-07-29T08:01:49;99710.72;;;23.50;49.74
33422;BME280;19763;55.798;37.782;2022-07-29T08:04:15;99713.03;;;23.54;48.79
33422;BME280;19763;55.798;37.782;2022-07-29T08:06:41;99712.97;;;23.32;47.78
33422;BME280;19763;55.798;37.782;2022-07-29T08:09:06;99714.78;;;23.42;48.43
33422;BME280;19763;55.798;37.782;2022-07-29T08:11:33;99711.94;;;23.57;49.51
33422;BME280;19763;55.798;37.782;2022-07-29T08:14:01;99718.78;;;23.48;48.56
33422;BME280;19763;55.798;37.782;2022-07-29T08:16:27;99712.59;;;23.60;49.27
33422;BME280;19763;55.798;37.782;2022-07-29T08:18:53;99720.91;;;23.67;49.59
33422;BME280;19763;55.798;37.782;2022-07-29T08:21:22;99712.69;;;23.23;47.86
33422;BME280;19763;55.798;37.782;2022-07-29T08:23:49;99681.09;;;23.22;50.15
33422;BME280;19763;55.798;37.782;2022-07-29T08:26:17;99706.69;;;23.08;48.65
33422;BME280;19763;55.798;37.782;2022-07-29T08:28:44;99714.44;;;23.47;49.71
33422;BME280;19763;55.798;37.782;2022-07-29T08:31:12;99703.78;;;23.60;49.49
33422;BME280;19763;55.798;37.782;2022-07-29T08:33:39;99702.50;;;23.77;48.60
33422;BME280;19763;55.798;37.782;2022-07-29T08:36:05;99702.56;;;23.88;48.44
33422;BME280;19763;55.798;37.782;2022-07-29T08:38:32;99704.75;;;23.94;47.46
33422;BME280;19763;55.798;37.782;2022-07-29T08:40:59;99695.63;;;23.99;47.15
33422;BME280;19763;55.798;37.782;2022-07-29T08:43:29;99665.25;;;23.69;47.02
33422;BME280;19763;55.798;37.782;2022-07-29T08:45:55;99714.72;;;23.91;47.55
33422;BME280;19763;55.798;37.782;2022-07-29T08:48:23;99656.84;;;23.75;46.32
33422;BME280;19763;55.798;37.782;2022-07-29T08:50:55;99699.81;;;24.24;44.72
33422;BME280;19763;55.798;37.782;2022-07-29T08:53:24;99660.72;;;24.16;44.36
33422;BME280;19763;55.798;37.782;2022-07-29T08:55:52;99698.34;;;24.54;44.14
33422;BME280;19763;55.798;37.782;2022-07-29T08:58:18;99703.22;;;24.60;44.45
33422;BME280;19763;55.798;37.782;2022-07-29T09:00:51;99661.91;;;24.46;44.95
33422;BME280;19763;55.798;37.782;2022-07-29T09:03:20;99701.75;;;24.56;43.91
33422;BME280;19763;55.798;37.782;2022-07-29T09:05:48;99706.44;;;24.18;44.33
33422;BME280;19763;55.798;37.782;2022-07-29T09:08:16;99710.53;;;24.34;43.29
33422;BME280;19763;55.798;37.782;2022-07-29T09:10:42;99695.59;;;24.21;42.71
33422;BME280;19763;55.798;37.782;2022-07-29T09:13:07;99698.97;;;24.46;43.24
33422;BME280;19763;55.798;37.782;2022-07-29T09:15:33;99704.16;;;24.36;43.28
33422;BME280;19763;55.798;37.782;2022-07-29T09:17:59;99700.06;;;24.55;43.77
33422;BME280;19763;55.798;37.782;2022-07-29T09:20:26;99711.16;;;24.71;43.45
33422;BME280;19763;55.798;37.782;2022-07-29T09:23:12;99695.44;;;24.79;44.93
33422;BME280;19763;55.798;37.782;2022-07-29T09:25:40;99703.66;;;24.65;43.09
33422;BME280;19763;55.798;37.782;2022-07-29T09:30:33;99703.78;;;24.63;44.34
33422;BME280;19763;55.798;37.782;2022-07-29T09:33:00;99664.44;;;24.36;43.43
33422;BME280;19763;55.798;37.782;2022-07-29T09:35:28;99677.06;;;24.21;43.65
33422;BME280;19763;55.798;37.782;2022-07-29T09:37:54;99712.94;;;24.25;43.56
33422;BME280;19763;55.798;37.782;2022-07-29T09:40:23;99722.94;;;24.33;47.30
33422;BME280;19763;55.798;37.782;2022-07-29T09:42:50;99721.38;;;24.19;44.09
33422;BME280;19763;55.798;37.782;2022-07-29T09:45:31;99699.22;;;24.20;46.18
33422;BME280;19763;55.798;37.782;2022-07-29T09:47:57;99714.63;;;24.49;45.20
33422;BME280;19763;55.798;37.782;2022-07-29T09:50:41;99722.94;;;24.56;45.95
33422;BME280;19763;55.798;37.782;2022-07-29T09:53:09;99698.84;;;24.47;44.50
33422;BME280;19763;55.798;37.782;2022-07-29T09:58:21;99680.84;;;24.19;44.49
33422;BME280;19763;55.798;37.782;2022-07-29T10:00:49;99723.75;;;24.45;43.86
33422;BME280;19763;55.798;37.782;2022-07-29T10:03:16;99722.44;;;24.51;45.86
33422;BME280;19763;55.798;37.782;2022-07-29T10:05:43;99712.47;;;24.54;43.70
33422;BME280;19763;55.798;37.782;2022-07-29T10:08:09;99711.84;;;24.39;43.17
33422;BME280;19763;55.798;37.782;2022-07-29T10:10:41;99671.91;;;24.20;43.78
33422;BME280;19763;55.798;37.782;2022-07-29T10:13:08;99711.75;;;24.63;44.33
33422;BME280;19763;55.798;37.782;2022-07-29T10:15:37;99663.09;;;24.53;43.48
33422;BME280;19763;55.798;37.782;2022-07-29T10:18:06;99711.47;;;24.78;45.60
33422;BME280;19763;55.798;37.782;2022-07-29T10:20:32;99722.19;;;24.54;43.34
33422;BME280;19763;55.798;37.782;2022-07-29T10:22:57;99714.63;;;24.49;43.70
33422;BME280;19763;55.798;37.782;2022-07-29T10:25:24;99717.38;;;24.59;42.80
33422;BME280;19763;55.798;37.782;2022-07-29T10:27:51;99702.09;;;24.62;44.35
33422;BME280;19763;55.798;37.782;2022-07-29T10:35:58;99705.75;;;24.61;42.53
33422;BME280;19763;55.798;37.782;2022-07-29T10:38:50;99710.88;;;24.52;43.41
33422;BME280;19763;55.798;37.782;2022-07-29T10:41:26;99702.00;;;24.41;43.71
33422;BME280;19763;55.798;37.782;2022-07-29T10:44:15;99704.75;;;24.62;43.47
33422;BME280;19763;55.798;37.782;2022-07-29T10:46:42;99708.00;;;24.55;44.79
33422;BME280;19763;55.798;37.782;2022-07-29T10:54:17;99705.72;;;24.16;43.86
33422;BME280;19763;55.798;37.782;2022-07-29T10:56:43;99705.47;;;23.97;44.45
33422;BME280;19763;55.798;37.782;2022-07-29T10:59:34;99676.97;;;24.23;44.18
33422;BME280;19763;55.798;37.782;2022-07-29T11:02:00;99700.56;;;24.60;44.47
33422;BME280;19763;55.798;37.782;2022-07-29T11:07:10;99707.63;;;24.59;43.82
33422;BME280;19763;55.798;37.782;2022-07-29T11:09:36;99708.44;;;24.83;45.36
33422;BME280;19763;55.798;37.782;2022-07-29T11:12:02;99711.69;;;24.86;44.09
33422;BME280;19763;55.798;37.782;2022-07-29T11:14:59;99715.72;;;25.13;45.17
33422;BME280;19763;55.798;37.782;2022-07-29T11:17:26;99703.88;;;24.85;42.21
33422;BME280;19763;55.798;37.782;2022-07-29T11:22:56;99709.94;;;25.08;42.05
33422;BME280;19763;55.798;37.782;2022-07-29T11:25:21;99705.56;;;25.18;43.68
33422;BME280;19763;55.798;37.782;2022-07-29T11:27:47;99707.38;;;25.18;42.37
33422;BME280;19763;55.798;37.782;2022-07-29T11:30:13;99710.91;;;25.07;41.78
33422;BME280;19763;55.798;37.782;2022-07-29T11:32:43;99713.78;;;25.15;42.02
33422;BME280;19763;55.798;37.782;2022-07-29T11:35:20;99674.44;;;24.99;41.34
33422;BME280;19763;55.798;37.782;2022-07-29T11:43:48;99718.31;;;24.92;42.82
33422;BME280;19763;55.798;37.782;2022-07-29T11:46:15;99675.75;;;24.61;41.97
33422;BME280;19763;55.798;37.782;2022-07-29T11:48:42;99682.13;;;24.47;43.94
33422;BME280;19763;55.798;37.782;2022-07-29T11:51:11;99734.72;;;24.52;42.54
33422;BME280;19763;55.798;37.782;2022-07-29T11:53:38;99691.16;;;24.22;42.24
33422;BME280;19763;55.798;37.782;2022-07-29T11:56:07;99726.41;;;24.56;42.91
33422;BME280;19763;55.798;37.782;2022-07-29T11:58:34;99726.53;;;24.32;42.58
33422;BME280;19763;55.798;37.782;2022-07-29T12:01:00;99721.63;;;24.27;42.77
33422;BME280;19763;55.798;37.782;2022-07-29T12:03:27;99719.78;;;24.28;43.79
33422;BME280;19763;55.798;37.782;2022-07-29T12:05:53;99719.78;;;24.39;44.58
33422;BME280;19763;55.798;37.782;2022-07-29T12:08:21;99681.41;;;24.22;44.10
33422;BME280;19763;55.798;37.782;2022-07-29T12:10:49;99676.13;;;24.34;43.09
33422;BME280;19763;55.798;37.782;2022-07-29T12:13:17;99715.38;;;24.28;42.93
33422;BME280;19763;55.798;37.782;2022-07-29T12:15:55;99707.88;;;24.22;42.38
33422;BME280;19763;55.798;37.782;2022-07-29T12:18:22;99701.25;;;24.17;42.94
33422;BME280;19763;55.798;37.782;2022-07-29T12:20:48;99706.94;;;24.46;44.52
33422;BME280;19763;55.798;37.782;2022-07-29T12:23:15;99690.81;;;24.38;44.67
33422;BME280;19763;55.798;37.782;2022-07-29T12:25:43;99698.88;;;24.36;44.32
33422;BME280;19763;55.798;37.782;2022-07-29T12:28:11;99659.91;;;24.04;44.32
33422;BME280;19763;55.798;37.782;2022-07-29T12:30:51;99695.84;;;24.29;45.04
33422;BME280;19763;55.798;37.782;2022-07-29T12:33:20;99704.03;;;24.38;45.13
33422;BME280;19763;55.798;37.782;2022-07-29T12:35:48;99711.59;;;24.42;44.69
33422;BME280;19763;55.798;37.782;2022-07-29T12:38:15;99705.34;;;24.43;45.77
33422;BME280;19763;55.798;37.782;2022-07-29T12:40:42;99712.94;;;24.48;45.84
33422;BME280;19763;55.798;37.782;2022-07-29T12:43:12;99706.94;;;24.46;46.65
33422;BME280;19763;55.798;37.782;2022-07-29T12:45:40;99698.03;;;24.36;45.86
33422;BME280;19763;55.798;37.782;2022-07-29T12:48:07;99709.31;;;24.49;46.08
33422;BME280;19763;55.798;37.782;2022-07-29T12:50:51;99702.34;;;24.48;45.66
33422;BME280;19763;55.798;37.782;2022-07-29T12:53:17;99695.84;;;24.41;45.73
33422;BME280;19763;55.798;37.782;2022-07-29T12:55:45;99662.44;;;24.17;44.93
33422;BME280;19763;55.798;37.782;2022-07-29T12:58:32;99695.47;;;24.34;45.72
33422;BME280;19763;55.798;37.782;2022-07-29T13:01:10;99705.22;;;24.45;45.43
33422;BME280;19763;55.798;37.782;2022-07-29T13:03:57;99689.84;;;24.50;46.29
33422;BME280;19763;55.798;37.782;2022-07-29T13:09:18;99693.91;;;24.54;45.85
33422;BME280;19763;55.798;37.782;2022-07-29T13:11:49;99656.16;;;24.29;45.60
33422;BME280;19763;55.798;37.782;2022-07-29T13:14:35;99659.03;;;24.38;44.75
33422;BME280;19763;55.798;37.782;2022-07-29T13:19:35;99692.81;;;24.57;43.96
33422;BME280;19763;55.798;37.782;2022-07-29T13:22:01;99693.94;;;24.66;45.58
33422;BME280;19763;55.798;37.782;2022-07-29T13:24:27;99691.88;;;24.69;43.72
33422;BME280;19763;55.798;37.782;2022-07-29T13:26:53;99699.91;;;24.79;45.54
33422;BME280;19763;55.798;37.782;2022-07-29T13:29:18;99686.69;;;24.68;45.42
33422;BME280;19763;55.798;37.782;2022-07-29T13:31:44;99699.69;;;24.71;44.19
33422;BME280;19763;55.798;37.782;2022-07-29T13:34:09;99693.81;;;24.67;43.36
33422;BME280;19763;55.798;37.782;2022-07-29T13:36:36;99695.34;;;24.70;44.40
33422;BME280;19763;55.798;37.782;2022-07-29T13:39:01;99699.31;;;24.64;44.93
33422;BME280;19763;55.798;37.782;2022-07-29T13:41:28;99698.75;;;24.60;42.89
33422;BME280;19763;55.798;37.782;2022-07-29T13:43:54;99698.84;;;24.70;45.21
33422;BME280;19763;55.798;37.782;2022-07-29T13:46:20;99706.03;;;24.79;44.06
33422;BME280;19763;55.798;37.782;2022-07-29T13:48:45;99702.09;;;24.74;44.94